Time;durP1;ratioP1;P1;durP2;ratioP2;P2;SDS_P1;SDS_P2;PMS_P1;PMS_P2;Temp;Humidity;BMP_temperature;BMP_pressure;BME280_temperature;BME280_humidity;BME280_pressure;Samples;Min_cycle;Max_cycle;Signal;HPM_P1;HPM_P2
2023/10/15 00:00:35;;;;;;;9.33;3.80;;;;;;;20.17;60.34;100627.16;5063979;28;20467;-59
2023/10/15 00:03:02;;;;;;;9.97;4.63;;;;;;;20.18;60.51;100625.94;5071449;28;20480;-59
2023/10/15 00:05:28;;;;;;;10.13;4.30;;;;;;;20.16;60.16;100620.59;5072598;28;20179;-59
2023/10/15 00:07:53;;;;;;;9.73;5.40;;;;;;;20.16;60.67;100614.88;5071604;28;20417;-59
2023/10/15 00:10:25;;;;;;;11.83;4.23;;;;;;;20.18;60.58;100617.34;5067457;28;20183;-59
2023/10/15 00:12:51;;;;;;;10.03;4.30;;;;;;;20.16;60.52;100614.88;5069094;28;20180;-59
2023/10/15 00:15:20;;;;;;;13.27;4.30;;;;;;;20.16;60.64;100614.88;5058991;28;20457;-59
2023/10/15 00:17:50;;;;;;;7.60;3.50;;;;;;;20.16;60.47;100616.91;5068995;28;21116;-59
2023/10/15 00:20:16;;;;;;;12.00;4.30;;;;;;;20.16;60.86;100608.31;5069278;28;20473;-60
2023/10/15 00:22:45;;;;;;;7.77;3.33;;;;;;;20.15;60.66;100607.47;5070052;28;20440;-59
2023/10/15 00:25:15;;;;;;;9.07;3.97;;;;;;;20.15;60.57;100612.38;5070365;28;20511;-59
2023/10/15 00:27:41;;;;;;;9.40;3.67;;;;;;;20.15;60.68;100613.22;5067859;28;22456;-60
2023/10/15 00:30:12;;;;;;;8.53;3.57;;;;;;;20.14;60.78;100605.84;5070699;28;21027;-59
2023/10/15 00:32:44;;;;;;;8.80;3.90;;;;;;;20.14;60.73;100611.56;5070679;28;20433;-59
2023/10/15 00:35:10;;;;;;;9.97;4.00;;;;;;;20.14;60.93;100611.56;5070830;28;20425;-59
2023/10/15 00:37:41;;;;;;;7.37;3.43;;;;;;;20.14;61.19;100605.84;5071964;28;20418;-60
2023/10/15 00:40:16;;;;;;;11.30;4.23;;;;;;;20.13;61.01;100601.31;5069583;28;20584;-59
2023/10/15 00:42:47;;;;;;;7.60;3.93;;;;;;;20.13;61.05;100606.22;5066223;28;20437;-60
2023/10/15 00:45:17;;;;;;;7.07;3.57;;;;;;;20.14;61.00;100605.00;5051900;28;20399;-59
2023/10/15 00:47:44;;;;;;;8.03;3.20;;;;;;;20.13;61.23;100609.91;5068251;28;20524;-59
2023/10/15 00:50:09;;;;;;;7.93;3.33;;;;;;;20.13;61.15;100597.59;5066439;28;20846;-59
2023/10/15 00:52:42;;;;;;;7.27;3.67;;;;;;;20.12;61.40;100599.63;5051424;28;20422;-58
2023/10/15 00:55:10;;;;;;;8.00;3.63;;;;;;;20.12;60.88;100599.63;5067479;28;20660;-60
2023/10/15 00:57:41;;;;;;;7.63;3.93;;;;;;;20.12;61.18;100599.63;5062380;28;20442;-58
2023/10/15 01:00:52;;;;;;;8.23;4.30;;;;;;;20.12;61.15;100599.63;5050199;28;20891;-58
2023/10/15 01:03:26;;;;;;;6.90;3.20;;;;;;;20.12;61.27;100599.63;5061591;28;20412;-59
2023/10/15 01:05:59;;;;;;;7.50;3.43;;;;;;;20.11;61.12;100600.84;5070517;28;20520;-58
2023/10/15 01:08:42;;;;;;;6.43;3.13;;;;;;;20.10;61.40;100587.75;5069833;28;20409;-59
2023/10/15 01:11:11;;;;;;;8.70;3.90;;;;;;;20.10;61.36;100587.75;5070259;28;20504;-59
2023/10/15 01:13:38;;;;;;;6.37;3.10;;;;;;;20.11;61.39;100594.31;5069123;28;20469;-58
2023/10/15 01:16:06;;;;;;;8.90;3.23;;;;;;;20.10;61.35;100596.34;5072555;28;20547;-59
2023/10/15 01:18:31;;;;;;;8.27;3.60;;;;;;;20.10;61.53;100593.47;5071312;28;20425;-59
2023/10/15 01:21:01;;;;;;;7.33;3.17;;;;;;;20.09;61.45;100597.56;5069197;28;20500;-59
2023/10/15 01:23:31;;;;;;;9.60;3.80;;;;;;;20.10;61.44;100590.59;5069427;28;20273;-60
2023/10/15 01:25:59;;;;;;;6.30;3.17;;;;;;;20.09;61.68;100590.97;5071393;28;20425;-60
2023/10/15 01:28:36;;;;;;;7.53;3.20;;;;;;;20.09;61.58;100599.59;5052021;28;20429;-58
2023/10/15 01:31:05;;;;;;;8.63;3.23;;;;;;;20.09;61.45;100606.16;5058988;28;20808;-59
2023/10/15 01:33:46;;;;;;;5.97;2.77;;;;;;;20.09;61.59;100603.28;5070747;28;20456;-59
2023/10/15 01:36:16;;;;;;;8.37;3.43;;;;;;;20.09;61.71;100606.16;5067602;28;20968;-59
2023/10/15 01:38:44;;;;;;;6.37;3.50;;;;;;;20.08;61.66;100600.81;5051888;28;20437;-59
2023/10/15 01:41:13;;;;;;;6.30;3.13;;;;;;;20.08;61.79;100601.66;5053545;28;20418;-59
2023/10/15 01:43:39;;;;;;;5.93;3.00;;;;;;;20.08;61.43;100604.50;5069659;28;20892;-58
2023/10/15 01:46:10;;;;;;;5.27;2.97;;;;;;;20.07;62.03;100605.69;5070472;28;20421;-59
2023/10/15 01:48:39;;;;;;;5.80;3.07;;;;;;;20.08;61.88;100612.25;5069345;28;20522;-59
2023/10/15 01:51:06;;;;;;;8.77;3.53;;;;;;;20.07;61.76;100602.81;5070327;28;20948;-59
2023/10/15 01:53:34;;;;;;;6.00;2.87;;;;;;;20.08;61.73;100603.66;5066985;28;20490;-58
2023/10/15 01:56:00;;;;;;;7.60;2.83;;;;;;;20.07;61.57;100602.81;5055149;28;20941;-59
2023/10/15 01:58:32;;;;;;;8.00;3.47;;;;;;;20.06;61.86;100604.00;5068896;28;20562;-59
2023/10/15 02:01:20;;;;;;;5.90;2.83;;;;;;;20.07;61.96;100601.97;5069036;28;20402;-60
2023/10/15 02:03:49;;;;;;;6.57;3.43;;;;;;;20.06;61.76;100604.00;5065667;28;20457;-60
2023/10/15 02:06:19;;;;;;;7.43;3.63;;;;;;;20.07;62.00;100604.84;5065854;28;20442;-60
2023/10/15 02:08:45;;;;;;;6.77;3.20;;;;;;;20.06;61.87;100594.59;5047760;28;20647;-59
2023/10/15 02:11:15;;;;;;;5.40;2.40;;;;;;;20.06;61.86;100597.47;5055066;28;21318;-58
2023/10/15 02:13:45;;;;;;;7.33;2.97;;;;;;;20.05;62.06;100590.91;5066380;28;20433;-58
2023/10/15 02:16:15;;;;;;;8.10;3.30;;;;;;;20.05;61.97;100599.50;5066935;28;20476;-59
2023/10/15 02:18:51;;;;;;;5.00;2.50;;;;;;;20.04;62.10;100597.84;5067625;28;20456;-59
2023/10/15 02:21:16;;;;;;;5.73;2.53;;;;;;;20.04;62.04;100603.59;5069168;28;20429;-58
2023/10/15 02:23:49;;;;;;;7.60;3.40;;;;;;;20.05;62.18;100593.75;5063718;28;20856;-60
2023/10/15 02:26:18;;;;;;;7.70;2.80;;;;;;;20.03;62.21;100601.94;5064866;28;20192;-59
2023/10/15 02:28:46;;;;;;;5.87;2.70;;;;;;;20.04;62.16;100600.72;5070008;28;20433;-59
2023/10/15 02:31:22;;;;;;;10.23;3.60;;;;;;;20.04;62.34;100594.97;5068509;28;20460;-58
2023/10/15 02:33:47;;;;;;;6.80;3.20;;;;;;;20.03;62.13;100599.06;5068329;28;20452;-59
2023/10/15 02:36:16;;;;;;;5.90;2.80;;;;;;;20.03;62.25;100601.09;5069733;28;20463;-59
2023/10/15 02:38:53;;;;;;;4.67;2.93;;;;;;;20.02;62.12;100590.84;5066176;28;20200;-59
2023/10/15 02:41:20;;;;;;;6.97;2.67;;;;;;;20.03;62.11;100592.50;5049791;28;20424;-59
2023/10/15 02:43:53;;;;;;;5.47;3.37;;;;;;;20.02;62.33;100591.66;5049456;28;21234;-58
2023/10/15 02:46:36;;;;;;;5.00;2.60;;;;;;;20.03;62.04;100598.22;5067015;28;20437;-59
2023/10/15 02:49:01;;;;;;;5.07;2.63;;;;;;;20.02;62.51;100600.25;5069261;28;20425;-60
2023/10/15 02:51:27;;;;;;;6.80;2.87;;;;;;;20.02;62.50;100599.44;5068972;28;20498;-59
2023/10/15 02:53:53;;;;;;;6.40;2.67;;;;;;;20.01;62.47;100600.66;5064195;28;20190;-59
2023/10/15 02:56:22;;;;;;;7.70;3.03;;;;;;;20.01;62.11;100601.47;5049263;28;20210;-60
2023/10/15 02:58:48;;;;;;;5.90;2.60;;;;;;;20.01;62.46;100595.75;5048015;28;20453;-59
2023/10/15 03:01:20;;;;;;;5.37;2.57;;;;;;;20.01;62.38;100594.94;5047709;28;20873;-59
2023/10/15 03:03:49;;;;;;;5.20;2.50;;;;;;;20.01;62.33;100595.75;5055897;28;20656;-59
2023/10/15 03:06:19;;;;;;;6.17;2.90;;;;;;;20.00;62.34;100599.81;5051462;28;20433;-59
2023/10/15 03:08:47;;;;;;;5.53;2.63;;;;;;;20.00;62.39;100591.22;5046378;28;20437;-60
2023/10/15 03:11:13;;;;;;;4.57;2.17;;;;;;;19.99;62.69;100592.44;5047765;28;20454;-59
2023/10/15 03:13:49;;;;;;;5.43;2.73;;;;;;;20.00;62.44;100602.69;5047748;28;20517;-58
2023/10/15 03:16:16;;;;;;;6.50;2.70;;;;;;;19.99;62.76;100603.91;5062585;28;20491;-59
2023/10/15 03:18:41;;;;;;;5.93;2.97;;;;;;;19.99;62.44;100603.06;5068108;28;20872;-60
2023/10/15 03:21:14;;;;;;;5.80;2.80;;;;;;;19.98;62.47;100602.25;5067533;28;20445;-59
2023/10/15 03:23:41;;;;;;;4.73;2.43;;;;;;;19.99;62.43;100606.78;5066993;28;20228;-58
2023/10/15 03:26:07;;;;;;;6.20;2.70;;;;;;;19.98;62.89;100607.16;5067394;28;20499;-59
2023/10/15 03:28:34;;;;;;;7.47;3.30;;;;;;;19.99;62.66;100608.78;5068304;28;20425;-59
2023/10/15 03:31:00;;;;;;;5.17;2.40;;;;;;;19.99;62.57;100608.78;5068774;28;20520;-59
2023/10/15 03:33:30;;;;;;;4.60;2.50;;;;;;;19.99;62.64;100608.78;5068626;28;20527;-59
2023/10/15 03:35:56;;;;;;;4.67;2.27;;;;;;;19.97;62.70;100612.03;5055429;28;20574;-58
2023/10/15 03:38:32;;;;;;;5.80;3.30;;;;;;;19.98;62.77;100610.84;5054312;28;20441;-59
2023/10/15 03:44:03;;;;;;;5.13;2.83;;;;;;;19.97;63.10;100605.50;5010494;28;20439;-59
2023/10/15 03:46:33;;;;;;;5.13;2.27;;;;;;;19.97;62.73;100612.03;5054341;28;20885;-58
2023/10/15 03:48:59;;;;;;;5.63;2.60;;;;;;;19.97;62.79;100614.91;5055211;28;21050;-59
2023/10/15 03:51:27;;;;;;;7.00;2.70;;;;;;;19.97;62.86;100623.50;5061725;28;21230;-59
2023/10/15 03:53:52;;;;;;;4.50;2.10;;;;;;;19.97;62.96;100617.78;5072249;28;20440;-59
2023/10/15 03:56:19;;;;;;;4.97;2.30;;;;;;;19.97;63.07;100614.91;5058822;28;20500;-59
2023/10/15 03:58:47;;;;;;;4.30;2.20;;;;;;;19.96;62.91;100619.00;5071329;28;20778;-59
2023/10/15 04:03:42;;;;;;;4.83;2.40;;;;;;;19.96;62.98;100621.03;5070118;28;20443;-60
2023/10/15 04:06:08;;;;;;;4.87;2.50;;;;;;;19.95;62.93;100620.19;5069741;28;20236;-59
2023/10/15 04:08:33;;;;;;;5.13;2.20;;;;;;;19.95;62.92;100620.19;5070333;28;20425;-60
2023/10/15 04:10:59;;;;;;;6.53;2.50;;;;;;;19.94;62.80;100615.69;5065100;28;20190;-59
2023/10/15 04:13:27;;;;;;;6.93;2.43;;;;;;;19.95;62.90;100610.75;5051464;28;20756;-59
2023/10/15 04:15:54;;;;;;;3.13;2.00;;;;;;;19.95;63.04;100613.63;5052305;28;20208;-59
2023/10/15 04:18:25;;;;;;;5.23;1.97;;;;;;;19.94;63.15;100621.41;5052260;28;20529;-59
2023/10/15 04:20:55;;;;;;;4.40;2.27;;;;;;;19.94;63.06;100623.44;5062949;28;20610;-59
2023/10/15 04:23:56;;;;;;;5.13;2.50;;;;;;;19.94;63.52;100617.72;5072065;28;21292;-59
2023/10/15 04:26:12;;;;;;;6.27;2.37;;;;;;;19.94;63.16;100617.72;5066127;28;20525;-59
2023/10/15 04:28:40;;;;;;;4.30;2.03;;;;;;;19.93;63.02;100616.91;5072109;28;20509;-59
2023/10/15 04:31:16;;;;;;;4.00;2.13;;;;;;;19.93;63.18;100616.91;5069259;28;20210;-59
2023/10/15 04:33:43;;;;;;;3.93;2.20;;;;;;;19.94;63.19;100627.16;5052788;28;20437;-60
2023/10/15 04:36:09;;;;;;;7.87;2.33;;;;;;;19.94;62.95;100617.72;5067798;28;20473;-59
2023/10/15 04:38:38;;;;;;;5.30;2.27;;;;;;;19.93;63.05;100621.78;5072064;28;20431;-59
2023/10/15 04:41:04;;;;;;;4.70;1.90;;;;;;;19.93;63.21;100636.97;5069891;28;20183;-59
2023/10/15 04:43:29;;;;;;;4.60;2.50;;;;;;;19.92;63.08;100625.88;5071906;28;20409;-60
2023/10/15 04:45:56;;;;;;;5.00;2.47;;;;;;;19.93;63.06;100636.13;5071516;28;20633;-59
2023/10/15 04:48:36;;;;;;;3.97;2.20;;;;;;;19.92;63.05;100638.16;5070556;28;20218;-60
2023/10/15 04:51:11;;;;;;;3.93;2.13;;;;;;;19.92;63.06;100638.16;5070485;28;20436;-58
2023/10/15 04:53:37;;;;;;;4.73;2.50;;;;;;;19.91;63.32;100625.03;5062375;28;21160;-59
2023/10/15 04:56:04;;;;;;;4.63;2.57;;;;;;;19.92;63.26;100631.63;5055281;28;20469;-59
2023/10/15 04:58:30;;;;;;;5.17;2.27;;;;;;;19.91;63.17;100627.91;5070841;28;20174;-60
2023/10/15 05:00:58;;;;;;;5.07;2.53;;;;;;;19.91;63.34;100633.63;5066892;28;20796;-59
2023/10/15 05:03:23;;;;;;;4.13;2.17;;;;;;;19.91;63.07;100633.63;5070634;28;20175;-59
2023/10/15 05:05:49;;;;;;;4.10;2.33;;;;;;;19.91;63.24;100636.50;5071215;28;20436;-59
2023/10/15 05:08:17;;;;;;;4.30;2.30;;;;;;;19.91;63.29;100641.44;5059132;28;20191;-59
2023/10/15 05:10:49;;;;;;;3.87;2.13;;;;;;;19.90;63.26;100632.00;5051418;28;20551;-59
2023/10/15 05:13:15;;;;;;;3.70;1.93;;;;;;;19.91;63.28;100638.56;5058276;28;20491;-59
2023/10/15 05:15:43;;;;;;;7.60;2.67;;;;;;;19.90;63.24;100639.75;5071229;28;20453;-58
2023/10/15 05:18:09;;;;;;;5.90;2.37;;;;;;;19.91;63.49;100642.22;5071342;28;20626;-59
2023/10/15 05:20:36;;;;;;;5.10;2.37;;;;;;;19.91;63.35;100647.16;5070878;28;20468;-59
2023/10/15 05:23:04;;;;;;;4.23;2.30;;;;;;;19.90;63.45;100642.59;5070230;28;20698;-59
2023/10/15 05:25:30;;;;;;;3.77;2.30;;;;;;;19.89;63.32;100636.06;5071003;28;20418;-59
2023/10/15 05:27:55;;;;;;;4.50;2.40;;;;;;;19.89;63.34;100650.41;5070678;28;20424;-59
2023/10/15 05:30:21;;;;;;;4.03;2.10;;;;;;;19.89;63.48;100640.97;5067852;28;20179;-59
2023/10/15 05:32:48;;;;;;;4.80;2.40;;;;;;;19.89;63.45;100643.81;5054892;28;20184;-59
2023/10/15 05:35:14;;;;;;;4.60;2.07;;;;;;;19.89;63.32;100643.81;5050900;28;20176;-59
2023/10/15 05:37:42;;;;;;;3.93;1.90;;;;;;;19.89;63.26;100649.56;5057075;28;20472;-59
2023/10/15 05:40:08;;;;;;;3.87;1.90;;;;;;;19.88;63.53;100647.91;5050726;28;20593;-59
2023/10/15 05:42:34;;;;;;;4.53;2.40;;;;;;;19.88;63.48;100651.63;5051565;28;21069;-59
2023/10/15 05:45:00;;;;;;;4.20;1.93;;;;;;;19.88;63.50;100647.91;5070054;28;20418;-58
2023/10/15 05:47:26;;;;;;;4.67;2.17;;;;;;;19.87;63.78;100655.66;5069503;28;20810;-60
2023/10/15 05:49:53;;;;;;;3.57;1.80;;;;;;;19.88;63.38;100660.22;5068682;28;20261;-59
2023/10/15 05:52:19;;;;;;;4.53;1.90;;;;;;;19.88;63.43;100665.09;5069596;28;20174;-59
2023/10/15 05:54:46;;;;;;;4.50;2.30;;;;;;;19.88;63.71;100673.69;5064945;28;20924;-60
2023/10/15 05:57:12;;;;;;;3.90;2.10;;;;;;;19.88;63.33;100670.84;5051336;28;20210;-58
2023/10/15 05:59:37;;;;;;;4.33;1.70;;;;;;;19.88;63.48;100665.94;5067525;28;20449;-59
2023/10/15 06:02:04;;;;;;;3.47;1.80;;;;;;;19.87;63.62;100675.72;5069215;28;20421;-59
2023/10/15 06:04:30;;;;;;;3.90;2.00;;;;;;;19.86;64.10;100679.81;5067234;28;20194;-59
2023/10/15 06:06:55;;;;;;;3.63;1.97;;;;;;;19.87;63.71;100683.50;5069942;28;20490;-59
2023/10/15 06:09:21;;;;;;;4.00;1.80;;;;;;;19.86;63.93;100685.53;5055494;28;20422;-59
2023/10/15 06:11:46;;;;;;;8.30;2.67;;;;;;;19.86;63.57;100691.25;5067731;28;20201;-59
2023/10/15 06:14:12;;;;;;;5.50;2.10;;;;;;;19.87;63.73;100692.91;5069934;28;20203;-58
2023/10/15 06:16:37;;;;;;;4.87;1.80;;;;;;;19.88;63.61;100700.31;5056237;28;20306;-59
2023/10/15 06:19:03;;;;;;;3.30;1.80;;;;;;;19.86;63.59;100694.13;5055107;28;20234;-59
2023/10/15 06:21:28;;;;;;;3.70;1.90;;;;;;;19.85;63.81;100695.34;5066397;28;20206;-59
2023/10/15 06:23:54;;;;;;;4.13;2.00;;;;;;;19.88;63.55;100699.47;5055358;28;20187;-59
2023/10/15 06:26:20;;;;;;;5.33;2.37;;;;;;;19.86;63.98;100688.41;5066034;28;20194;-59
2023/10/15 06:28:45;;;;;;;4.20;2.27;;;;;;;19.85;63.91;100703.09;5069318;28;20220;-59
2023/10/15 06:31:10;;;;;;;3.97;2.30;;;;;;;19.85;63.76;100695.34;5059541;28;20186;-59
2023/10/15 06:33:40;;;;;;;4.83;1.97;;;;;;;19.84;63.81;100696.56;5049449;28;20187;-59
2023/10/15 06:36:08;;;;;;;3.90;2.10;;;;;;;19.85;63.71;100698.22;5050622;28;20199;-60
2023/10/15 06:38:34;;;;;;;3.10;1.60;;;;;;;19.87;63.80;100698.66;5048708;28;20904;-59
2023/10/15 06:41:02;;;;;;;3.93;1.73;;;;;;;19.87;63.55;100697.84;5062597;28;20445;-59
2023/10/15 06:43:28;;;;;;;5.43;2.03;;;;;;;19.86;63.67;100702.72;5058785;28;20219;-59
2023/10/15 06:45:53;;;;;;;4.17;2.03;;;;;;;19.85;63.65;100709.66;5054138;28;20464;-58
2023/10/15 06:48:22;;;;;;;3.13;1.40;;;;;;;19.86;63.87;100714.19;5068436;28;20490;-58
2023/10/15 06:50:48;;;;;;;3.70;1.57;;;;;;;19.85;63.78;100724.00;5068764;28;20174;-58
2023/10/15 06:53:13;;;;;;;4.20;1.97;;;;;;;19.84;63.61;100722.34;5067510;28;20996;-58
2023/10/15 06:55:39;;;;;;;3.90;1.53;;;;;;;19.85;63.82;100723.16;5061891;28;20179;-59
2023/10/15 06:58:04;;;;;;;3.97;1.70;;;;;;;19.85;64.31;100726.88;5054152;28;20818;-58
2023/10/15 07:00:31;;;;;;;3.67;1.80;;;;;;;19.86;63.70;100731.38;5049730;28;20188;-59
2023/10/15 07:02:57;;;;;;;3.53;1.43;;;;;;;19.85;63.95;100729.72;5069114;28;20218;-59
2023/10/15 07:05:23;;;;;;;5.47;2.13;;;;;;;19.84;63.93;100733.81;5070956;28;20924;-59
2023/10/15 07:07:49;;;;;;;2.47;1.37;;;;;;;19.84;63.68;100739.53;5071555;28;20424;-58
2023/10/15 07:10:15;;;;;;;5.57;2.23;;;;;;;19.85;63.71;100737.47;5071255;28;20278;-59
2023/10/15 07:12:45;;;;;;;3.90;1.93;;;;;;;19.84;63.83;100745.28;5073470;28;20163;-58
2023/10/15 07:15:13;;;;;;;3.03;1.80;;;;;;;19.85;63.80;100749.78;5073242;28;20433;-58
2023/10/15 07:17:39;;;;;;;3.63;2.10;;;;;;;19.85;63.84;100755.50;5073611;28;20468;-58
2023/10/15 07:20:14;;;;;;;6.17;2.17;;;;;;;19.84;64.21;100753.88;5072516;28;20476;-58
2023/10/15 07:22:43;;;;;;;4.00;1.80;;;;;;;19.85;63.95;100764.13;5067678;28;20183;-57
2023/10/15 07:25:09;;;;;;;3.60;1.50;;;;;;;19.84;63.97;100759.59;5061536;28;20800;-59
2023/10/15 07:27:35;;;;;;;4.03;1.87;;;;;;;19.85;63.76;100764.13;5068642;28;20426;-59
2023/10/15 07:30:01;;;;;;;3.50;1.70;;;;;;;19.86;63.65;100762.91;5053364;28;20672;-58
2023/10/15 07:32:27;;;;;;;3.00;1.57;;;;;;;19.87;63.76;100755.16;5071006;28;20441;-58
2023/10/15 07:34:53;;;;;;;3.00;1.60;;;;;;;19.84;63.77;100755.88;5068531;28;20924;-58
2023/10/15 07:37:19;;;;;;;3.03;1.40;;;;;;;19.83;63.63;100751.38;5071853;28;20650;-58
2023/10/15 07:39:45;;;;;;;3.20;1.57;;;;;;;19.79;63.15;100756.19;5070367;28;20437;-58
2023/10/15 07:42:10;;;;;;;5.80;1.90;;;;;;;19.77;62.96;100750.03;5071884;28;20432;-58
2023/10/15 07:44:36;;;;;;;6.23;1.50;;;;;;;19.75;62.21;100753.25;5070466;28;20175;-58
2023/10/15 07:47:04;;;;;;;4.37;1.63;;;;;;;19.74;62.84;100757.34;5070938;28;20240;-59
2023/10/15 07:49:31;;;;;;;5.57;1.43;;;;;;;19.73;61.32;100757.72;5071458;28;20197;-59
2023/10/15 07:51:57;;;;;;;4.97;1.67;;;;;;;19.72;61.94;100776.94;5071084;28;20790;-58
2023/10/15 07:54:22;;;;;;;3.23;1.50;;;;;;;19.73;60.55;100770.00;5070717;28;20480;-58
2023/10/15 07:56:48;;;;;;;5.63;1.57;;;;;;;19.74;60.99;100770.81;5052697;28;20553;-58
2023/10/15 07:59:14;;;;;;;3.90;1.33;;;;;;;19.74;60.79;100780.25;5069616;28;20191;-59
2023/10/15 08:01:40;;;;;;;4.30;1.40;;;;;;;19.75;61.13;100772.47;5067670;28;20191;-58
2023/10/15 08:04:06;;;;;;;5.43;1.30;;;;;;;19.76;61.27;100777.84;5065783;28;20429;-58
2023/10/15 08:06:34;;;;;;;3.17;1.40;;;;;;;19.77;61.12;100778.69;5051440;28;20519;-59
2023/10/15 08:08:59;;;;;;;3.20;1.30;;;;;;;19.76;61.34;100774.16;5052250;28;20408;-58
2023/10/15 08:11:24;;;;;;;4.47;1.87;;;;;;;19.77;61.37;100778.69;5068741;28;20441;-58
2023/10/15 08:13:50;;;;;;;5.40;1.50;;;;;;;19.77;61.50;100778.69;5072184;28;20203;-58
2023/10/15 08:16:18;;;;;;;6.00;1.80;;;;;;;19.77;61.74;100773.75;5069791;28;20203;-58
2023/10/15 08:18:44;;;;;;;5.13;1.80;;;;;;;19.77;61.86;100779.50;5071885;28;20182;-58
2023/10/15 08:21:11;;;;;;;4.77;1.60;;;;;;;19.77;61.97;100779.50;5071372;28;20838;-59
2023/10/15 08:23:38;;;;;;;4.80;1.30;;;;;;;19.78;61.64;100784.03;5071295;28;20865;-58
2023/10/15 08:26:05;;;;;;;3.10;1.27;;;;;;;19.77;61.94;100799.53;5069944;28;20433;-59
2023/10/15 08:28:31;;;;;;;4.03;1.50;;;;;;;19.79;62.00;100793.44;5071498;28;20936;-59
2023/10/15 08:30:57;;;;;;;3.77;1.43;;;;;;;19.79;62.02;100799.16;5070641;28;20903;-58
2023/10/15 08:33:23;;;;;;;5.63;1.70;;;;;;;19.77;62.04;100805.28;5068962;28;20429;-58
2023/10/15 08:35:49;;;;;;;4.20;1.10;;;;;;;19.79;61.99;100799.16;5067446;28;20211;-59
2023/10/15 08:38:15;;;;;;;4.40;1.60;;;;;;;19.79;61.98;100790.56;5068720;28;20460;-58
2023/10/15 08:40:41;;;;;;;3.67;1.50;;;;;;;19.78;62.33;100791.78;5070449;28;20209;-58
2023/10/15 08:43:15;;;;;;;3.07;1.23;;;;;;;19.76;62.46;100789.28;5049815;28;20445;-58
2023/10/15 08:45:43;;;;;;;3.30;1.33;;;;;;;19.77;62.40;100779.50;5065926;28;20190;-58
2023/10/15 08:48:11;;;;;;;4.17;1.20;;;;;;;19.78;62.03;100789.75;5051766;28;20779;-59
2023/10/15 08:50:36;;;;;;;2.40;1.30;;;;;;;19.79;62.29;100787.72;5071455;28;20425;-59
2023/10/15 08:53:04;;;;;;;3.00;1.23;;;;;;;19.80;62.14;100790.22;5060486;28;20457;-59
2023/10/15 08:55:32;;;;;;;3.63;1.30;;;;;;;19.81;62.41;100793.91;5053177;28;20642;-58
2023/10/15 08:57:58;;;;;;;4.03;1.13;;;;;;;19.81;62.12;100783.25;5051629;28;20418;-58
2023/10/15 09:00:27;;;;;;;3.20;1.23;;;;;;;19.81;62.27;100788.19;5051871;28;21229;-59
2023/10/15 09:02:54;;;;;;;2.73;1.30;;;;;;;19.79;62.42;100797.16;5071000;28;20195;-58
2023/10/15 09:05:20;;;;;;;4.13;1.17;;;;;;;19.80;62.61;100795.09;5071528;28;20409;-58
2023/10/15 09:07:47;;;;;;;3.13;1.17;;;;;;;19.81;62.67;100791.84;5070372;28;20437;-58
2023/10/15 09:10:14;;;;;;;3.33;1.10;;;;;;;19.80;62.68;100795.94;5067045;28;20661;-60
2023/10/15 09:12:39;;;;;;;3.00;1.00;;;;;;;19.82;62.37;100804.16;5069170;28;20822;-58
2023/10/15 09:15:15;;;;;;;2.33;1.20;;;;;;;19.81;62.67;100809.06;5070472;28;20437;-58
2023/10/15 09:17:51;;;;;;;3.23;1.57;;;;;;;19.79;62.48;100805.75;5068293;28;20296;-59
2023/10/15 09:20:26;;;;;;;4.53;1.47;;;;;;;19.79;62.53;100811.47;5070292;28;20872;-58
2023/10/15 09:22:58;;;;;;;3.83;1.50;;;;;;;19.80;62.56;100818.00;5068819;28;20785;-59
2023/10/15 09:25:25;;;;;;;4.00;1.53;;;;;;;19.80;62.63;100806.56;5068791;28;20441;-58
2023/10/15 09:27:53;;;;;;;2.37;1.03;;;;;;;19.81;62.46;100811.91;5063766;28;20567;-58
2023/10/15 09:30:21;;;;;;;4.13;1.40;;;;;;;19.81;62.77;100819.69;5068460;28;20434;-58
2023/10/15 09:32:47;;;;;;;4.17;1.40;;;;;;;19.82;62.50;100810.69;5049931;28;20429;-59
2023/10/15 09:35:13;;;;;;;3.00;1.50;;;;;;;19.83;62.63;100812.38;5049972;28;20846;-58
2023/10/15 09:37:39;;;;;;;3.40;1.40;;;;;;;19.81;62.72;100808.25;5062469;28;20222;-58
2023/10/15 09:40:20;;;;;;;3.97;1.70;;;;;;;19.83;62.56;100806.66;5059896;28;20438;-59
2023/10/15 09:42:53;;;;;;;2.83;1.10;;;;;;;19.82;62.75;100816.44;5049329;28;20422;-59
2023/10/15 09:45:19;;;;;;;2.63;1.37;;;;;;;19.83;62.96;100811.53;5056083;28;20924;-58
2023/10/15 09:47:48;;;;;;;3.00;1.10;;;;;;;19.85;62.65;100812.81;5069569;28;20444;-59
2023/10/15 09:50:16;;;;;;;2.53;1.03;;;;;;;19.83;62.75;100817.28;5070322;28;20190;-58
2023/10/15 09:52:44;;;;;;;2.87;1.43;;;;;;;19.84;62.59;100814.03;5068269;28;20610;-58
2023/10/15 09:55:11;;;;;;;3.57;1.40;;;;;;;19.84;62.71;100818.94;5069265;28;20900;-58
2023/10/15 09:57:38;;;;;;;3.77;1.10;;;;;;;19.81;62.81;100820.50;5068685;28;20469;-59
2023/10/15 10:00:10;;;;;;;3.13;1.10;;;;;;;19.82;62.64;100816.44;5069502;28;20425;-58
2023/10/15 10:02:38;;;;;;;2.30;1.00;;;;;;;19.82;62.84;100813.56;5065749;28;20456;-60
2023/10/15 10:05:41;;;;;;;2.70;1.20;;;;;;;19.84;62.94;100814.03;5066771;28;20561;-59
2023/10/15 10:08:12;;;;;;;2.60;1.20;;;;;;;19.83;62.57;100811.53;5063211;28;20435;-58
2023/10/15 10:10:44;;;;;;;2.87;1.20;;;;;;;19.83;62.75;100826.72;5068912;28;20425;-59
2023/10/15 10:13:24;;;;;;;2.77;1.00;;;;;;;19.81;62.95;100826.25;5052530;28;20425;-59
2023/10/15 10:15:57;;;;;;;5.93;1.40;;;;;;;19.81;62.87;100814.78;5067694;28;20432;-58
2023/10/15 10:18:24;;;;;;;2.87;1.00;;;;;;;19.81;62.62;100819.69;5067092;28;20464;-59
2023/10/15 10:20:49;;;;;;;2.30;0.90;;;;;;;19.81;63.00;100819.69;5069588;28;20471;-58
2023/10/15 10:23:15;;;;;;;3.10;1.13;;;;;;;19.81;62.90;100820.50;5068466;28;20428;-58
2023/10/15 10:25:45;;;;;;;3.07;1.30;;;;;;;19.80;62.90;100818.00;5065025;28;20626;-58
2023/10/15 10:28:19;;;;;;;2.27;1.10;;;;;;;19.82;62.91;100813.56;5068211;28;20628;-58
2023/10/15 10:30:55;;;;;;;2.50;1.13;;;;;;;19.80;62.86;100813.13;5044394;28;20752;-59
2023/10/15 10:33:43;;;;;;;3.17;1.20;;;;;;;19.82;63.11;100810.69;5064071;28;20436;-59
2023/10/15 10:36:19;;;;;;;2.63;1.10;;;;;;;19.82;62.91;100812.75;5066008;28;20471;-58
2023/10/15 10:38:55;;;;;;;2.50;1.00;;;;;;;19.83;62.68;100817.28;5068095;28;20443;-59
2023/10/15 10:41:21;;;;;;;2.57;1.17;;;;;;;19.84;62.72;100811.16;5069970;28;20431;-59
2023/10/15 10:43:46;;;;;;;2.93;1.40;;;;;;;19.83;62.63;100812.38;5069639;28;20909;-58
2023/10/15 10:46:22;;;;;;;4.70;1.37;;;;;;;19.84;62.68;100811.16;5068624;28;20503;-58
2023/10/15 10:49:04;;;;;;;1.53;0.73;;;;;;;19.83;63.00;100811.53;5055659;28;20270;-59
2023/10/15 10:51:35;;;;;;;2.00;1.00;;;;;;;19.84;62.64;100814.03;5049400;28;21137;-59
2023/10/15 10:54:03;;;;;;;3.30;1.13;;;;;;;19.84;62.71;100808.31;5050330;28;20939;-59
2023/10/15 10:56:55;;;;;;;2.80;0.93;;;;;;;19.83;62.86;100812.38;5068401;28;20449;-58
2023/10/15 10:59:20;;;;;;;2.43;1.00;;;;;;;19.83;62.69;100811.53;5064725;28;20445;-58
2023/10/15 11:01:46;;;;;;;2.33;1.03;;;;;;;19.83;62.83;100800.09;5065288;28;20433;-59
2023/10/15 11:04:15;;;;;;;1.80;0.93;;;;;;;19.82;62.99;100810.69;5067661;28;20167;-59
2023/10/15 11:06:42;;;;;;;2.20;1.30;;;;;;;19.83;62.85;100811.53;5066821;28;20626;-59
2023/10/15 11:09:20;;;;;;;2.73;0.80;;;;;;;19.84;62.74;100814.03;5065637;28;20408;-59
2023/10/15 11:11:47;;;;;;;3.27;1.10;;;;;;;19.86;62.96;100811.63;5066304;28;20451;-58
2023/10/15 11:14:13;;;;;;;4.57;1.43;;;;;;;19.85;62.81;100815.69;5064422;28;20522;-59
2023/10/15 11:16:40;;;;;;;2.23;1.10;;;;;;;19.84;62.79;100814.03;5067167;28;21313;-59
2023/10/15 11:19:15;;;;;;;3.30;1.30;;;;;;;19.85;62.56;100809.13;5047533;28;20458;-59
2023/10/15 11:21:42;;;;;;;3.40;1.17;;;;;;;19.84;62.86;100807.47;5057431;28;20434;-58
2023/10/15 11:24:11;;;;;;;3.30;1.27;;;;;;;19.84;63.13;100799.72;5063088;28;20514;-58
2023/10/15 11:26:37;;;;;;;3.00;1.27;;;;;;;19.85;62.75;100801.38;5067839;28;21072;-58
2023/10/15 11:29:04;;;;;;;2.37;1.00;;;;;;;19.85;63.02;100804.22;5068751;28;20409;-58
2023/10/15 11:31:30;;;;;;;2.80;1.10;;;;;;;19.87;62.59;100810.41;5051724;28;20418;-58
2023/10/15 11:33:55;;;;;;;2.90;1.10;;;;;;;19.87;62.78;100813.25;5049888;28;20418;-58
2023/10/15 11:36:22;;;;;;;3.50;1.23;;;;;;;19.87;62.78;100807.53;5060922;28;20634;-59